< < Back
Terminal Aerodrome Forecast


Current Version              Previous Versions:   1  2  3  4  5  6  7  8  9  

Terminal Aerodrome Forecast

908
FTUS44 KHUN 311139
TAFHSV
TAF
KHSV 311139Z 3112/0112 36005KT P6SM FEW250
     FM311400 03010KT P6SM SKC
     FM311700 03012G18KT P6SM SKC
     FM010000 02007KT P6SM SKC=



Latest METAR

873
SAUS80 KWBC 311900 RRB
MTRHSV
METAR KHSV 311853Z 03009G17KT 10SM FEW250 33/14 A3002 RMK AO2 SLP158
T03330144


USA.gov is the U.S. government's official web portal to all federal, state and local government web resources and services.